createdAt,value
2022-08-29T00:01:33.136Z,98879.81
2022-08-29T00:04:04.138Z,98880.16
2022-08-29T00:06:32.527Z,98873.13
2022-08-29T00:09:00.586Z,98874.66
2022-08-29T00:11:28.576Z,98873.81
2022-08-29T00:13:56.703Z,98879.69
2022-08-29T00:16:24.913Z,98876.19
2022-08-29T00:18:53.058Z,98874.59
2022-08-29T00:21:22.654Z,98874.97
2022-08-29T00:23:50.762Z,98871.44
2022-08-29T00:26:18.877Z,98880.81
2022-08-29T00:28:46.994Z,98880.03
2022-08-29T00:31:15.224Z,98879.25
2022-08-29T00:33:43.684Z,98876.53
2022-08-29T00:36:11.814Z,98871.78
2022-08-29T00:38:41.827Z,98885.47
2022-08-29T00:41:10.283Z,98881.53
2022-08-29T00:43:39.223Z,98882.66
2022-08-29T00:46:28.550Z,98886.16
2022-08-29T00:49:00.125Z,98879.47
2022-08-29T00:51:28.294Z,98879.88
2022-08-29T00:54:02.050Z,98885.34
2022-08-29T00:56:31.508Z,98884.53
2022-08-29T00:59:05.186Z,98890.41
2022-08-29T01:01:33.428Z,98880.22
2022-08-29T01:04:01.973Z,98886.47
2022-08-29T01:06:35.114Z,98879.00
2022-08-29T01:09:05.914Z,98877.03
2022-08-29T01:11:51.807Z,98879.72
2022-08-29T01:14:22.960Z,98882.03
2022-08-29T01:16:53.292Z,98889.41
2022-08-29T01:19:33.592Z,98881.91
2022-08-29T01:22:14.918Z,98883.47
2022-08-29T01:24:50.780Z,98886.16
2022-08-29T01:27:21.206Z,98883.38
2022-08-29T01:29:50.261Z,98881.81
2022-08-29T01:32:18.388Z,98880.25
2022-08-29T01:34:46.494Z,98886.50
2022-08-29T01:37:17.207Z,98881.03
2022-08-29T01:39:47.767Z,98881.78
2022-08-29T01:42:18.433Z,98884.91
2022-08-29T01:44:51.124Z,98886.44
2022-08-29T01:47:21.456Z,98882.91
2022-08-29T01:49:49.538Z,98884.88
2022-08-29T01:52:17.813Z,98893.41
2022-08-29T01:54:47.900Z,98892.16
2022-08-29T01:57:16.998Z,98900.34
2022-08-29T01:59:45.757Z,98901.09
2022-08-29T02:02:18.340Z,98899.09
2022-08-29T02:04:47.342Z,98904.19
2022-08-29T02:07:17.624Z,98899.47
2022-08-29T02:09:48.228Z,98894.00
2022-08-29T02:12:17.606Z,98893.19
2022-08-29T02:14:45.929Z,98895.19
2022-08-29T02:17:14.055Z,98892.88
2022-08-29T02:19:43.571Z,98894.88
2022-08-29T02:22:12.138Z,98891.75
2022-08-29T02:24:40.377Z,98896.06
2022-08-29T02:27:10.530Z,98890.97
2022-08-29T02:29:39.623Z,98896.81
2022-08-29T02:32:09.429Z,98893.31
2022-08-29T02:34:37.923Z,98896.81
2022-08-29T02:37:07.526Z,98895.97
2022-08-29T02:39:35.862Z,98903.38
2022-08-29T02:42:04.790Z,98899.03
2022-08-29T02:44:34.241Z,98900.97
2022-08-29T02:47:02.360Z,98909.63
2022-08-29T02:49:30.504Z,98919.78
2022-08-29T02:51:58.969Z,98910.41
2022-08-29T02:54:27.289Z,98917.03
2022-08-29T02:56:55.391Z,98921.31
2022-08-29T02:59:23.471Z,98925.22
2022-08-29T03:01:53.654Z,98928.66
2022-08-29T03:04:21.914Z,98928.13
2022-08-29T03:06:50.393Z,98932.69
2022-08-29T03:09:18.446Z,98932.25
2022-08-29T03:11:46.480Z,98941.16
2022-08-29T03:14:14.588Z,98939.59
2022-08-29T03:16:44.211Z,98940.38
2022-08-29T03:19:13.700Z,98952.09
2022-08-29T03:21:42.079Z,98947.06
2022-08-29T03:24:10.146Z,98950.97
2022-08-29T03:26:38.872Z,98946.97
2022-08-29T03:29:06.993Z,98943.38
2022-08-29T03:31:35.765Z,98948.03
2022-08-29T03:34:04.925Z,98953.41
2022-08-29T03:36:34.513Z,98959.69
2022-08-29T03:39:02.715Z,98958.97
2022-08-29T03:41:31.241Z,98962.09
2022-08-29T03:44:00.263Z,98967.22
2022-08-29T03:46:29.394Z,98972.31
2022-08-29T03:48:57.556Z,98975.84
2022-08-29T03:51:28.657Z,98979.34
2022-08-29T03:53:59.698Z,98984.81
2022-08-29T03:56:28.951Z,98981.34
2022-08-29T03:58:58.408Z,98987.16
2022-08-29T04:01:29.202Z,98994.19
2022-08-29T04:03:58.661Z,99007.41
2022-08-29T04:06:28.700Z,99001.22
2022-08-29T04:08:59.140Z,99001.25
2022-08-29T04:11:28.942Z,99008.72
2022-08-29T04:13:57.220Z,99013.09
2022-08-29T04:16:30.964Z,99010.41
2022-08-29T04:19:00.076Z,99018.25
2022-08-29T04:21:28.239Z,99023.00
2022-08-29T04:23:56.520Z,99018.75
2022-08-29T04:26:41.489Z,99027.00
2022-08-29T04:29:11.308Z,99027.09
2022-08-29T04:31:40.594Z,99026.06
2022-08-29T04:34:10.653Z,99031.63
2022-08-29T04:36:39.933Z,99031.31
2022-08-29T04:39:08.123Z,99036.88
2022-08-29T04:41:38.664Z,99032.66
2022-08-29T04:44:08.207Z,99037.50
2022-08-29T04:46:36.493Z,99038.41
2022-08-29T04:49:04.752Z,99037.75
2022-08-29T04:51:34.465Z,99039.41
2022-08-29T04:54:03.290Z,99037.97
2022-08-29T04:56:31.457Z,99041.22
2022-08-29T04:59:01.138Z,99049.91
2022-08-29T05:01:29.310Z,99052.34
2022-08-29T05:03:58.066Z,99049.34
2022-08-29T05:06:28.279Z,99060.00
2022-08-29T05:08:59.725Z,99055.41
2022-08-29T05:11:29.842Z,99057.81
2022-08-29T05:13:58.262Z,99045.00
2022-08-29T05:16:29.979Z,99046.22
2022-08-29T05:18:59.965Z,99038.03
2022-08-29T05:21:35.060Z,99045.13
2022-08-29T05:24:05.506Z,99040.91
2022-08-29T05:26:36.001Z,99049.97
2022-08-29T05:29:04.290Z,99048.50
2022-08-29T05:31:38.200Z,99053.25
2022-08-29T05:34:14.101Z,99049.00
2022-08-29T05:36:55.229Z,99050.22
2022-08-29T05:39:23.333Z,99051.84
2022-08-29T05:41:51.476Z,99057.38
2022-08-29T05:44:19.614Z,99054.31
2022-08-29T05:46:49.815Z,99046.13
2022-08-29T05:49:18.417Z,99046.53
2022-08-29T05:51:46.584Z,99048.13
2022-08-29T05:54:14.705Z,99045.81
2022-08-29T05:56:43.075Z,99047.00
2022-08-29T05:59:13.629Z,99045.44
2022-08-29T06:01:41.903Z,99049.75
2022-08-29T06:04:11.487Z,99041.13
2022-08-29T06:06:41.544Z,99042.72
2022-08-29T06:09:10.387Z,99049.38
2022-08-29T06:11:38.492Z,99051.34
2022-08-29T06:14:07.253Z,99057.59
2022-08-29T06:16:35.444Z,99054.50
2022-08-29T06:19:03.620Z,99054.13
2022-08-29T06:21:33.395Z,99060.03
2022-08-29T06:24:01.600Z,99064.00
2022-08-29T06:26:31.578Z,99049.84
2022-08-29T06:28:59.815Z,99060.81
2022-08-29T06:31:29.505Z,99057.69
2022-08-29T06:33:59.724Z,99056.88
2022-08-29T06:36:28.948Z,99047.34
2022-08-29T06:38:59.191Z,99054.28
2022-08-29T06:41:28.135Z,99045.47
2022-08-29T06:43:57.997Z,99048.06
2022-08-29T06:46:28.797Z,99053.09
2022-08-29T06:48:58.148Z,99049.09
2022-08-29T06:51:27.674Z,99041.16
2022-08-29T06:53:55.760Z,99046.19
2022-08-29T06:56:25.258Z,99038.69
2022-08-29T06:58:54.865Z,99043.00
2022-08-29T07:01:24.151Z,99036.94
2022-08-29T07:03:54.451Z,99033.25
2022-08-29T07:06:23.447Z,99032.38
2022-08-29T07:08:55.169Z,99036.63
2022-08-29T07:11:26.790Z,99031.84
2022-08-29T07:13:58.289Z,99031.69
2022-08-29T07:16:26.594Z,99030.16
2022-08-29T07:18:54.990Z,99026.38
2022-08-29T07:21:25.197Z,99028.56
2022-08-29T07:23:54.816Z,99030.66
2022-08-29T07:26:26.750Z,99037.50
2022-08-29T07:28:57.400Z,99024.94
2022-08-29T07:31:27.341Z,99028.22
2022-08-29T07:34:02.830Z,99026.03
2022-08-29T07:36:31.928Z,99023.00
2022-08-29T07:38:59.929Z,99021.81
2022-08-29T07:41:29.760Z,99016.72
2022-08-29T07:43:59.023Z,99010.94
2022-08-29T07:46:27.331Z,99013.91
2022-08-29T07:48:55.662Z,99014.47
2022-08-29T07:51:27.373Z,99011.22
2022-08-29T07:53:55.981Z,99024.72
2022-08-29T07:56:26.493Z,99015.63
2022-08-29T07:58:57.129Z,99008.09
2022-08-29T08:01:25.945Z,99003.31
2022-08-29T08:03:54.919Z,99011.28
2022-08-29T08:06:27.693Z,99003.44
2022-08-29T08:08:56.581Z,99004.97
2022-08-29T08:11:26.110Z,98996.56
2022-08-29T08:13:56.675Z,99005.06
2022-08-29T08:16:27.082Z,99000.53
2022-08-29T08:18:55.982Z,99008.22
2022-08-29T08:21:25.068Z,99006.34
2022-08-29T08:23:53.547Z,99007.56
2022-08-29T08:26:22.069Z,99008.44
2022-08-29T08:28:50.280Z,99006.66
2022-08-29T08:31:20.494Z,98992.34
2022-08-29T08:33:49.138Z,99003.78
2022-08-29T08:36:19.595Z,98994.88
2022-08-29T08:38:48.067Z,98997.00
2022-08-29T08:41:32.281Z,99000.69
2022-08-29T08:44:05.379Z,98997.34
2022-08-29T08:46:40.418Z,98998.28
2022-08-29T08:49:13.584Z,98998.94
2022-08-29T08:51:51.186Z,99001.59
2022-08-29T08:54:28.428Z,99000.94
2022-08-29T08:57:04.811Z,99000.47
2022-08-29T08:59:39.495Z,99000.59
2022-08-29T09:02:16.814Z,98999.50
2022-08-29T09:04:59.880Z,98992.25
2022-08-29T09:07:43.698Z,98993.78
2022-08-29T09:10:19.853Z,98988.00
2022-08-29T09:12:57.189Z,98990.88
2022-08-29T09:15:32.846Z,98988.63
2022-08-29T09:18:06.510Z,98985.00
2022-08-29T09:20:37.583Z,98991.66
2022-08-29T09:23:12.323Z,98987.13
2022-08-29T09:25:40.840Z,98999.78
2022-08-29T09:28:10.324Z,98997.00
2022-08-29T09:30:42.517Z,98988.78
2022-08-29T09:33:14.435Z,98992.84
2022-08-29T09:35:45.746Z,98996.75
2022-08-29T09:38:21.699Z,98983.28
2022-08-29T09:40:55.608Z,98986.28
2022-08-29T09:43:28.068Z,98973.34
2022-08-29T09:46:17.730Z,98987.28
2022-08-29T09:48:49.321Z,98975.91
2022-08-29T09:51:28.430Z,98979.53
2022-08-29T09:54:12.798Z,98991.22
2022-08-29T09:56:49.929Z,98983.97
2022-08-29T09:59:24.848Z,98971.75
2022-08-29T10:02:12.452Z,98967.34
2022-08-29T10:04:44.985Z,98966.13
2022-08-29T10:07:17.720Z,98964.47
2022-08-29T10:09:55.015Z,98969.69
2022-08-29T10:12:33.116Z,98969.84
2022-08-29T10:15:06.107Z,98956.53
2022-08-29T10:17:57.200Z,98960.19
2022-08-29T10:20:41.087Z,98966.44
2022-08-29T10:23:20.623Z,98943.84
2022-08-29T10:25:48.884Z,98953.19
2022-08-29T10:28:26.383Z,98947.88
2022-08-29T10:31:00.590Z,98948.22
2022-08-29T10:33:49.368Z,98944.19
2022-08-29T10:36:23.255Z,98923.41
2022-08-29T10:38:56.488Z,98941.69
2022-08-29T10:41:33.550Z,98931.00
2022-08-29T10:47:16.341Z,98945.44
2022-08-29T10:49:59.307Z,98957.53
2022-08-29T10:52:35.202Z,98964.97
2022-08-29T10:55:13.322Z,98966.88
2022-08-29T10:57:54.442Z,98961.91
2022-08-29T11:00:24.425Z,98976.22
2022-08-29T11:03:00.852Z,98965.66
2022-08-29T11:05:40.611Z,98949.50
2022-08-29T11:08:16.590Z,98968.13
2022-08-29T11:10:49.908Z,98961.78
2022-08-29T11:13:23.358Z,98958.31
2022-08-29T11:16:01.972Z,98984.28
2022-08-29T11:18:37.861Z,98995.25
2022-08-29T11:21:17.495Z,98974.94
2022-08-29T11:23:49.474Z,98984.50
2022-08-29T11:26:29.920Z,98993.34
2022-08-29T11:29:03.358Z,98994.75
2022-08-29T11:31:46.190Z,98981.75
2022-08-29T11:34:28.971Z,98968.25
2022-08-29T11:37:24.150Z,98975.09
2022-08-29T11:39:59.822Z,98972.63
2022-08-29T11:45:35.600Z,98983.13
2022-08-29T11:48:30.692Z,98981.63
2022-08-29T11:50:59.544Z,98986.22
2022-08-29T11:53:35.182Z,98986.22
2022-08-29T11:56:28.195Z,98981.44
2022-08-29T11:58:57.373Z,98980.19
2022-08-29T12:02:00.653Z,98965.91
2022-08-29T12:04:52.014Z,98968.06
2022-08-29T12:07:21.386Z,98974.00
2022-08-29T12:09:53.352Z,98967.63
2022-08-29T12:12:43.836Z,98974.63
2022-08-29T12:15:53.693Z,98970.31
2022-08-29T12:18:42.405Z,98968.44
2022-08-29T12:21:43.028Z,98976.19
2022-08-29T12:24:42.939Z,98974.34
2022-08-29T12:27:25.553Z,98993.81
2022-08-29T12:29:55.404Z,98985.66
2022-08-29T12:32:45.584Z,98999.56
2022-08-29T12:35:33.180Z,98993.69
2022-08-29T12:38:18.212Z,98999.47
2022-08-29T12:40:57.171Z,99004.06
2022-08-29T12:43:36.418Z,99005.84
2022-08-29T12:46:14.145Z,99018.66
2022-08-29T12:48:49.686Z,99017.84
2022-08-29T12:51:37.551Z,99019.84
2022-08-29T12:54:07.303Z,99009.38
2022-08-29T12:56:35.945Z,99018.94
2022-08-29T12:59:05.940Z,99017.59
2022-08-29T13:01:38.688Z,99020.25
2022-08-29T13:04:15.038Z,99018.78
2022-08-29T13:06:53.209Z,99021.22
2022-08-29T13:09:26.768Z,99016.91
2022-08-29T13:12:09.131Z,99011.13
2022-08-29T13:14:49.254Z,99000.56
2022-08-29T13:17:22.241Z,99001.56
2022-08-29T13:20:27.691Z,98990.38
2022-08-29T13:23:20.146Z,98990.81
2022-08-29T13:25:51.467Z,98994.91
2022-08-29T13:28:24.971Z,98986.22
2022-08-29T13:31:31.218Z,98978.56
2022-08-29T13:34:27.753Z,98977.69
2022-08-29T13:37:02.329Z,98978.00
2022-08-29T13:39:45.840Z,98975.97
2022-08-29T13:42:27.394Z,98975.09
2022-08-29T13:45:17.735Z,98960.19
2022-08-29T13:48:09.258Z,98959.75
2022-08-29T13:50:38.676Z,98961.28
2022-08-29T13:53:07.007Z,98959.63
2022-08-29T13:55:35.378Z,98957.63
2022-08-29T13:58:04.574Z,98962.56
2022-08-29T14:00:35.450Z,98971.47
2022-08-29T14:03:05.612Z,98965.19
2022-08-29T14:05:35.318Z,98962.16
2022-08-29T14:08:06.624Z,98947.56
2022-08-29T14:10:35.294Z,98950.88
2022-08-29T14:13:03.961Z,98949.03
2022-08-29T14:15:32.813Z,98939.09
2022-08-29T14:18:01.122Z,98938.28
2022-08-29T14:20:29.363Z,98933.94
2022-08-29T14:22:57.458Z,98928.50
2022-08-29T14:25:27.402Z,98933.31
2022-08-29T14:27:55.658Z,98931.50
2022-08-29T14:30:24.872Z,98931.50
2022-08-29T14:32:53.293Z,98924.03
2022-08-29T14:35:26.801Z,98924.06
2022-08-29T14:38:00.128Z,98925.28
2022-08-29T14:40:30.614Z,98929.59
2022-08-29T14:42:59.042Z,98931.16
2022-08-29T14:45:27.508Z,98925.88
2022-08-29T14:47:55.705Z,98926.84
2022-08-29T14:50:24.589Z,98929.47
2022-08-29T14:52:53.566Z,98927.75
2022-08-29T14:55:22.294Z,98922.97
2022-08-29T14:57:51.901Z,98930.00
2022-08-29T15:00:23.089Z,98929.72
2022-08-29T15:02:51.276Z,98926.13
2022-08-29T15:05:19.954Z,98927.50
2022-08-29T15:07:48.138Z,98931.31
2022-08-29T15:10:18.563Z,98925.22
2022-08-29T15:12:46.882Z,98935.16
2022-08-29T15:15:16.400Z,98941.53
2022-08-29T15:17:44.802Z,98941.84
2022-08-29T15:23:02.238Z,98942.50
2022-08-29T15:25:30.292Z,98949.00
2022-08-29T15:27:58.390Z,98957.31
2022-08-29T15:30:27.904Z,98959.41
2022-08-29T15:32:55.964Z,98953.13
2022-08-29T15:35:24.396Z,98964.00
2022-08-29T15:37:54.378Z,98956.97
2022-08-29T15:40:22.803Z,98952.38
2022-08-29T15:42:51.086Z,98955.31
2022-08-29T15:45:19.289Z,98949.47
2022-08-29T15:47:53.955Z,98950.00
2022-08-29T15:50:23.589Z,98952.47
2022-08-29T15:52:51.713Z,98954.44
2022-08-29T15:55:21.233Z,98958.44
2022-08-29T15:57:51.394Z,98951.16
2022-08-29T16:00:30.761Z,98962.63
2022-08-29T16:03:05.072Z,98969.44
2022-08-29T16:05:34.826Z,98971.56
2022-08-29T16:08:03.777Z,98973.72
2022-08-29T16:10:32.548Z,98974.94
2022-08-29T16:13:00.926Z,98992.38
2022-08-29T16:15:31.134Z,98985.25
2022-08-29T16:18:00.142Z,98988.38
2022-08-29T16:20:30.422Z,98990.78
2022-08-29T16:22:58.657Z,98993.69
2022-08-29T16:25:27.622Z,98991.88
2022-08-29T16:27:57.242Z,98985.28
2022-08-29T16:30:25.432Z,99005.97
2022-08-29T16:32:54.844Z,99005.59
2022-08-29T16:35:23.539Z,98997.78
2022-08-29T16:38:03.166Z,98997.47
2022-08-29T16:40:32.379Z,99004.72
2022-08-29T16:43:01.631Z,99002.84
2022-08-29T16:45:29.730Z,99004.25
2022-08-29T16:47:57.919Z,98992.69
2022-08-29T16:50:27.356Z,98999.28
2022-08-29T16:52:56.940Z,98999.84
2022-08-29T16:55:25.843Z,98997.56
2022-08-29T16:58:11.201Z,99002.03
2022-08-29T17:00:40.388Z,98993.06
2022-08-29T17:03:08.911Z,98994.44
2022-08-29T17:05:37.406Z,98994.31
2022-08-29T17:08:05.749Z,98998.09
2022-08-29T17:10:32.687Z,98997.47
2022-08-29T17:12:59.608Z,99007.09
2022-08-29T17:15:27.698Z,99002.00
2022-08-29T17:17:56.305Z,99008.19
2022-08-29T17:20:24.957Z,99008.66
2022-08-29T17:22:53.550Z,99004.75
2022-08-29T17:25:24.105Z,99004.38
2022-08-29T17:28:17.769Z,99004.31
2022-08-29T17:30:40.647Z,99005.78
2022-08-29T17:33:10.772Z,99004.22
2022-08-29T17:35:39.302Z,99006.63
2022-08-29T17:38:08.469Z,99013.78
2022-08-29T17:40:38.646Z,99013.94
2022-08-29T17:43:09.109Z,99016.38
2022-08-29T17:45:38.780Z,99015.69
2022-08-29T17:48:06.925Z,99020.00
2022-08-29T17:50:36.367Z,99023.88
2022-08-29T17:53:05.544Z,99025.31
2022-08-29T17:55:33.701Z,99031.88
2022-08-29T17:58:03.187Z,99030.22
2022-08-29T18:00:31.564Z,99031.28
2022-08-29T18:03:00.083Z,99032.03
2022-08-29T18:05:28.285Z,99039.88
2022-08-29T18:07:56.979Z,99041.41
2022-08-29T18:10:25.546Z,99040.56
2022-08-29T18:12:53.596Z,99048.47
2022-08-29T18:15:23.575Z,99050.44
2022-08-29T18:17:51.976Z,99054.88
2022-08-29T18:20:21.732Z,99047.50
2022-08-29T18:22:49.908Z,99047.25
2022-08-29T18:25:22.615Z,99062.38
2022-08-29T18:27:51.434Z,99048.56
2022-08-29T18:30:20.386Z,99047.78
2022-08-29T18:32:50.426Z,99051.47
2022-08-29T18:35:19.196Z,99048.50
2022-08-29T18:37:47.423Z,99050.88
2022-08-29T18:40:15.893Z,99054.03
2022-08-29T18:42:44.190Z,99041.47
2022-08-29T18:45:13.020Z,99047.38
2022-08-29T18:47:41.721Z,99044.75
2022-08-29T18:50:29.303Z,99037.81
2022-08-29T18:52:57.547Z,99034.28
2022-08-29T18:55:25.979Z,99041.34
2022-08-29T18:57:54.567Z,99041.03
2022-08-29T19:00:25.033Z,99050.56
2022-08-29T19:02:53.274Z,99046.59
2022-08-29T19:05:24.406Z,99048.91
2022-08-29T19:07:53.280Z,99041.69
2022-08-29T19:10:22.361Z,99038.41
2022-08-29T19:12:50.577Z,99038.72
2022-08-29T19:15:20.483Z,99034.13
2022-08-29T19:17:48.671Z,99038.69
2022-08-29T19:20:38.255Z,99045.22
2022-08-29T19:23:08.871Z,99052.44
2022-08-29T19:25:37.582Z,99053.69
2022-08-29T19:28:06.378Z,99054.91
2022-08-29T19:30:35.125Z,99057.69
2022-08-29T19:33:03.180Z,99059.75
2022-08-29T19:35:31.365Z,99053.94
2022-08-29T19:37:59.644Z,99066.66
2022-08-29T19:40:32.642Z,99060.81
2022-08-29T19:43:03.747Z,99062.31
2022-08-29T19:45:43.247Z,99067.03
2022-08-29T19:48:14.905Z,99069.78
2022-08-29T19:50:47.723Z,99059.06
2022-08-29T19:53:24.569Z,99058.59
2022-08-29T19:55:56.636Z,99066.84
2022-08-29T19:58:31.231Z,99062.03
2022-08-29T20:00:59.982Z,99069.94
2022-08-29T20:03:28.918Z,99073.91
2022-08-29T20:05:57.241Z,99070.81
2022-08-29T20:08:25.398Z,99074.47
2022-08-29T20:10:53.550Z,99081.69
2022-08-29T20:13:23.081Z,99077.44
2022-08-29T20:15:52.329Z,99081.09
2022-08-29T20:18:21.309Z,99085.13
2022-08-29T20:20:49.752Z,99084.00
2022-08-29T20:23:18.080Z,99076.56
2022-08-29T20:25:47.150Z,99079.38
2022-08-29T20:28:15.978Z,99072.31
2022-08-29T20:30:46.001Z,99068.72
2022-08-29T20:33:18.236Z,99065.91
2022-08-29T20:36:03.935Z,99065.06
2022-08-29T20:38:33.297Z,99064.25
2022-08-29T20:41:01.591Z,99075.34
2022-08-29T20:43:29.975Z,99066.41
2022-08-29T20:46:00.931Z,99071.19
2022-08-29T20:48:31.196Z,99069.25
2022-08-29T20:51:01.410Z,99064.56
2022-08-29T20:53:32.490Z,99061.84
2022-08-29T20:56:01.212Z,99066.22
2022-08-29T20:58:30.150Z,99072.50
2022-08-29T21:01:01.062Z,99084.34
2022-08-29T21:03:46.587Z,99087.91
2022-08-29T21:06:18.979Z,99089.50
2022-08-29T21:08:47.032Z,99089.88
2022-08-29T21:11:15.683Z,99090.69
2022-08-29T21:13:44.286Z,99100.13
2022-08-29T21:16:13.850Z,99106.00
2022-08-29T21:18:42.038Z,99108.78
2022-08-29T21:21:13.534Z,99100.13
2022-08-29T21:23:42.113Z,99100.53
2022-08-29T21:26:11.663Z,99100.91
2022-08-29T21:28:39.898Z,99103.69
2022-08-29T21:31:11.985Z,99120.59
2022-08-29T21:33:43.275Z,99113.91
2022-08-29T21:36:12.328Z,99115.47
2022-08-29T21:38:40.518Z,99107.59
2022-08-29T21:41:09.946Z,99108.41
2022-08-29T21:43:38.489Z,99115.06
2022-08-29T21:46:15.435Z,99107.59
2022-08-29T21:48:45.454Z,99108.00
2022-08-29T21:51:14.971Z,99099.75
2022-08-29T21:53:43.061Z,99102.50
2022-08-29T21:56:11.125Z,99107.63
2022-08-29T21:58:39.697Z,99105.66
2022-08-29T22:01:09.381Z,99108.00
2022-08-29T22:03:37.527Z,99107.63
2022-08-29T22:06:09.225Z,99108.78
2022-08-29T22:08:39.935Z,99115.84
2022-08-29T22:11:15.053Z,99114.69
2022-08-29T22:13:43.381Z,99113.50
2022-08-29T22:16:29.666Z,99117.84
2022-08-29T22:19:02.297Z,99120.59
2022-08-29T22:21:34.546Z,99124.09
2022-08-29T22:24:03.462Z,99130.78
2022-08-29T22:26:31.626Z,99121.34
2022-08-29T22:28:59.737Z,99128.03
2022-08-29T22:31:28.056Z,99126.47
2022-08-29T22:33:56.144Z,99122.56
2022-08-29T22:36:24.708Z,99120.59
2022-08-29T22:38:56.326Z,99120.59
2022-08-29T22:41:25.892Z,99125.69
2022-08-29T22:44:31.608Z,99125.28
2022-08-29T22:46:45.275Z,99127.63
2022-08-29T22:49:13.665Z,99120.19
2022-08-29T22:51:41.881Z,99121.75
2022-08-29T22:54:28.743Z,99121.34
2022-08-29T22:56:57.040Z,99119.81
2022-08-29T22:59:25.113Z,99104.06
2022-08-29T23:01:53.421Z,99109.16
2022-08-29T23:04:21.584Z,99114.31
2022-08-29T23:06:49.594Z,99113.50
2022-08-29T23:09:19.161Z,99117.41
2022-08-29T23:11:47.475Z,99103.28
2022-08-29T23:14:16.107Z,99110.34
2022-08-29T23:16:49.179Z,99102.50
2022-08-29T23:19:17.282Z,99101.69
2022-08-29T23:21:45.819Z,99100.13
2022-08-29T23:24:14.342Z,99101.72
2022-08-29T23:26:43.892Z,99092.25
2022-08-29T23:29:11.932Z,99090.31
2022-08-29T23:31:40.090Z,99092.66
2022-08-29T23:34:08.574Z,99098.94
2022-08-29T23:36:36.634Z,99092.25
2022-08-29T23:39:05.926Z,99093.06
2022-08-29T23:41:34.603Z,99084.41
2022-08-29T23:44:04.766Z,99093.06
2022-08-29T23:46:32.791Z,99089.50
2022-08-29T23:49:00.994Z,99092.28
2022-08-29T23:51:29.689Z,99086.78
2022-08-29T23:53:58.080Z,99088.75
2022-08-29T23:56:26.483Z,99094.66
2022-08-29T23:58:56.770Z,99088.34
